Time,TemperatureF,DewpointF,PressureIn,WindDirection,WindDirectionDegrees,WindSpeedMPH,WindSpeedGustMPH,Humidity,HourlyPrecipIn,Conditions,Clouds,dailyrainin,SoftwareType,DateUTC
2013-04-23 00:03:00,53.1,48.7,29.91,SSE,157,0.0,0.0,85,0.00,,,0.00,meteohub,2013-04-23 07:03:00,
2013-04-23 00:08:00,53.1,48.7,29.91,SSE,157,0.0,0.0,85,0.00,,,0.00,meteohub,2013-04-23 07:08:00,
2013-04-23 00:13:00,52.9,48.2,29.91,SSE,157,0.0,0.0,84,0.00,,,0.00,meteohub,2013-04-23 07:13:00,
2013-04-23 00:19:00,52.3,48.0,29.91,SSE,157,0.0,0.0,85,0.00,,,0.00,meteohub,2013-04-23 07:19:00,
2013-04-23 00:24:00,51.4,47.5,29.91,SSE,157,0.0,0.0,86,0.00,,,0.00,meteohub,2013-04-23 07:24:00,
2013-04-23 00:29:00,51.4,47.7,29.90,SSE,157,0.0,1.0,87,0.00,,,0.00,meteohub,2013-04-23 07:29:00,
2013-04-23 00:34:00,51.8,48.0,29.90,SSE,157,0.0,2.0,87,0.00,,,0.00,meteohub,2013-04-23 07:34:00,
2013-04-23 00:39:00,52.0,47.8,29.90,SSE,157,0.0,2.0,86,0.00,,,0.00,meteohub,2013-04-23 07:39:00,
2013-04-23 00:44:00,52.3,48.2,29.90,SSE,157,0.0,2.0,86,0.00,,,0.00,meteohub,2013-04-23 07:44:00,
2013-04-23 00:49:00,54.1,48.7,29.90,SSE,161,1.0,1.0,82,0.00,,,0.00,meteohub,2013-04-23 07:49:00,
2013-04-23 00:54:00,56.3,48.2,29.90,NNE,32,1.0,1.0,74,0.00,,,0.00,meteohub,2013-04-23 07:54:00,
2013-04-23 00:59:00,56.8,47.8,29.90,WNW,285,0.0,3.0,72,0.00,,,0.00,meteohub,2013-04-23 07:59:00,
2013-04-23 01:04:00,56.5,47.5,29.90,WNW,285,0.0,3.0,72,0.00,,,0.00,meteohub,2013-04-23 08:04:00,
2013-04-23 01:09:00,55.2,47.5,29.90,WNW,285,0.0,3.0,75,0.00,,,0.00,meteohub,2013-04-23 08:09:00,
2013-04-23 01:14:00,54.1,47.1,29.90,WNW,285,0.0,3.0,77,0.00,,,0.00,meteohub,2013-04-23 08:14:00,
2013-04-23 01:19:00,53.8,47.5,29.90,NE,46,0.0,1.0,79,0.00,,,0.00,meteohub,2013-04-23 08:19:00,
2013-04-23 01:24:00,53.2,47.3,29.90,NE,46,0.0,3.0,80,0.00,,,0.00,meteohub,2013-04-23 08:24:00,
2013-04-23 01:29:00,53.1,47.3,29.90,NE,46,0.0,3.0,81,0.00,,,0.00,meteohub,2013-04-23 08:29:00,
2013-04-23 01:34:00,53.2,46.9,29.90,NE,46,0.0,3.0,79,0.00,,,0.00,meteohub,2013-04-23 08:34:00,
2013-04-23 01:39:00,53.8,47.5,29.89,NE,46,0.0,1.0,79,0.00,,,0.00,meteohub,2013-04-23 08:39:00,
2013-04-23 01:44:00,54.3,46.9,29.90,NE,46,0.0,2.0,76,0.00,,,0.00,meteohub,2013-04-23 08:44:00,
2013-04-23 01:49:00,52.3,46.4,29.89,NE,46,0.0,3.0,80,0.00,,,0.00,meteohub,2013-04-23 08:49:00,
2013-04-23 01:54:00,52.0,46.9,29.89,NE,46,0.0,3.0,83,0.00,,,0.00,meteohub,2013-04-23 08:54:00,
2013-04-23 01:59:00,51.3,46.6,29.90,NE,46,0.0,3.0,84,0.00,,,0.00,meteohub,2013-04-23 08:59:00,
2013-04-23 02:04:00,51.1,46.8,29.90,NE,46,0.0,2.0,85,0.00,,,0.00,meteohub,2013-04-23 09:04:00,
2013-04-23 02:09:00,51.1,47.1,29.89,NE,46,1.0,2.0,86,0.00,,,0.00,meteohub,2013-04-23 09:09:00,
2013-04-23 02:14:00,51.8,46.8,29.89,ENE,73,0.0,2.0,83,0.00,,,0.00,meteohub,2013-04-23 09:14:00,
2013-04-23 02:19:00,54.3,46.6,29.89,North,11,0.0,3.0,75,0.00,,,0.00,meteohub,2013-04-23 09:19:00,
2013-04-23 02:24:00,55.4,45.9,29.89,WNW,298,0.0,3.0,70,0.00,,,0.00,meteohub,2013-04-23 09:24:00,
2013-04-23 02:29:00,57.7,44.8,29.89,North,5,1.0,3.0,62,0.00,,,0.00,meteohub,2013-04-23 09:29:00,
2013-04-23 02:35:00,59.4,43.7,29.89,North,355,0.0,4.0,56,0.00,,,0.00,meteohub,2013-04-23 09:35:00,
2013-04-23 02:40:00,58.8,43.7,29.89,NNE,13,0.0,5.0,57,0.00,,,0.00,meteohub,2013-04-23 09:40:00,
2013-04-23 02:45:00,58.6,43.0,29.89,NNE,22,0.0,5.0,56,0.00,,,0.00,meteohub,2013-04-23 09:45:00,
2013-04-23 02:50:00,58.8,42.6,29.89,NNW,327,0.0,5.0,55,0.00,,,0.00,meteohub,2013-04-23 09:50:00,
2013-04-23 02:55:00,59.0,41.9,29.89,NNW,344,0.0,4.0,53,0.00,,,0.00,meteohub,2013-04-23 09:55:00,
2013-04-23 03:00:00,59.7,41.5,29.89,NE,34,2.0,8.0,51,0.00,,,0.00,meteohub,2013-04-23 10:00:00,
2013-04-23 03:05:00,60.3,41.0,29.89,NNE,24,2.0,8.0,49,0.00,,,0.00,meteohub,2013-04-23 10:05:00,
2013-04-23 03:10:00,61.0,40.1,29.89,North,11,0.0,8.0,46,0.00,,,0.00,meteohub,2013-04-23 10:10:00,
2013-04-23 03:15:00,61.7,39.6,29.89,NNE,16,1.0,6.0,44,0.00,,,0.00,meteohub,2013-04-23 10:15:00,
2013-04-23 03:20:00,62.1,39.4,29.89,NNE,30,1.0,6.0,43,0.00,,,0.00,meteohub,2013-04-23 10:20:00,
2013-04-23 03:25:00,62.6,38.5,29.89,NE,42,2.0,6.0,41,0.00,,,0.00,meteohub,2013-04-23 10:25:00,
2013-04-23 03:30:00,63.0,38.3,29.89,NNE,12,1.0,7.0,40,0.00,,,0.00,meteohub,2013-04-23 10:30:00,
2013-04-23 03:35:00,63.0,37.6,29.89,NE,34,4.0,7.0,39,0.00,,,0.00,meteohub,2013-04-23 10:35:00,
2013-04-23 03:40:00,63.3,36.7,29.89,North,355,4.0,7.0,37,0.00,,,0.00,meteohub,2013-04-23 10:40:00,
2013-04-23 03:45:00,64.0,35.8,29.90,NNE,26,6.0,8.0,35,0.00,,,0.00,meteohub,2013-04-23 10:45:00,
2013-04-23 03:50:00,64.6,35.6,29.89,NNW,334,3.0,10.0,34,0.00,,,0.00,meteohub,2013-04-23 10:50:00,
2013-04-23 03:55:00,64.9,35.1,29.90,NNW,339,6.0,10.0,33,0.00,,,0.00,meteohub,2013-04-23 10:55:00,
2013-04-23 04:00:00,65.5,34.9,29.90,NNE,19,4.0,13.0,32,0.00,,,0.00,meteohub,2013-04-23 11:00:00,
2013-04-23 04:05:00,65.5,34.9,29.90,ENE,57,10.0,16.0,32,0.00,,,0.00,meteohub,2013-04-23 11:05:00,
2013-04-23 04:10:00,65.7,34.2,29.90,NE,38,13.0,16.0,31,0.00,,,0.00,meteohub,2013-04-23 11:10:00,
2013-04-23 04:15:00,65.7,34.2,29.90,North,5,6.0,16.0,31,0.00,,,0.00,meteohub,2013-04-23 11:15:00,
2013-04-23 04:20:00,65.7,33.4,29.90,NW,313,5.0,13.0,30,0.00,,,0.00,meteohub,2013-04-23 11:20:00,
2013-04-23 04:25:00,65.8,33.6,29.90,North,350,14.0,15.0,30,0.00,,,0.00,meteohub,2013-04-23 11:25:00,
2013-04-23 04:30:00,65.8,33.6,29.89,NNE,24,6.0,15.0,30,0.00,,,0.00,meteohub,2013-04-23 11:30:00,
2013-04-23 04:35:00,65.8,33.6,29.90,NE,54,8.0,15.0,30,0.00,,,0.00,meteohub,2013-04-23 11:35:00,
2013-04-23 04:40:00,65.7,34.2,29.90,NNE,19,4.0,14.0,31,0.00,,,0.00,meteohub,2013-04-23 11:40:00,
2013-04-23 04:45:00,65.7,33.4,29.90,North,0,5.0,14.0,30,0.00,,,0.00,meteohub,2013-04-23 11:45:00,
2013-04-23 04:50:00,65.7,33.4,29.90,NE,36,6.0,14.0,30,0.00,,,0.00,meteohub,2013-04-23 11:50:00,
2013-04-23 04:55:00,65.3,33.8,29.90,North,355,4.0,14.0,31,0.00,,,0.00,meteohub,2013-04-23 11:55:00,
2013-04-23 05:00:00,65.1,33.8,29.90,NE,36,5.0,14.0,31,0.00,,,0.00,meteohub,2013-04-23 12:00:00,
2013-04-23 05:05:00,65.1,33.8,29.90,NNW,344,5.0,14.0,31,0.00,,,0.00,meteohub,2013-04-23 12:05:00,
2013-04-23 05:10:00,65.1,32.9,29.90,NE,48,9.0,15.0,30,0.00,,,0.00,meteohub,2013-04-23 12:10:00,
2013-04-23 05:15:00,65.1,32.0,29.90,NNW,342,5.0,15.0,29,0.00,,,0.00,meteohub,2013-04-23 12:15:00,
2013-04-23 05:20:00,65.1,32.0,29.90,NNE,20,4.0,15.0,29,0.00,,,0.00,meteohub,2013-04-23 12:20:00,
2013-04-23 05:25:00,65.1,31.3,29.90,NE,51,6.0,17.0,28,0.00,,,0.00,meteohub,2013-04-23 12:25:00,
2013-04-23 05:30:00,64.9,31.1,29.91,NNE,19,5.0,17.0,28,0.00,,,0.00,meteohub,2013-04-23 12:30:00,
2013-04-23 05:35:00,64.9,31.1,29.91,North,355,6.0,17.0,28,0.00,,,0.00,meteohub,2013-04-23 12:35:00,
2013-04-23 05:40:00,64.9,30.2,29.91,NNE,13,6.0,14.0,27,0.00,,,0.00,meteohub,2013-04-23 12:40:00,
2013-04-23 05:46:00,64.9,29.3,29.91,NE,45,6.0,14.0,26,0.00,,,0.00,meteohub,2013-04-23 12:46:00,
2013-04-23 05:51:00,65.1,29.3,29.91,North,5,4.0,17.0,26,0.00,,,0.00,meteohub,2013-04-23 12:51:00,
2013-04-23 05:56:00,64.9,29.3,29.91,North,355,5.0,17.0,26,0.00,,,0.00,meteohub,2013-04-23 12:56:00,
2013-04-23 06:01:00,64.9,29.3,29.91,NNE,26,6.0,18.0,26,0.00,,,0.00,meteohub,2013-04-23 13:01:00,
2013-04-23 06:06:00,64.8,29.1,29.91,North,10,7.0,18.0,26,0.00,,,0.00,meteohub,2013-04-23 13:06:00,
2013-04-23 06:11:00,64.8,29.1,29.91,NNE,28,10.0,16.0,26,0.00,,,0.00,meteohub,2013-04-23 13:11:00,
2013-04-23 06:16:00,64.6,28.9,29.91,North,5,6.0,16.0,26,0.00,,,0.00,meteohub,2013-04-23 13:16:00,
2013-04-23 06:21:00,64.6,28.9,29.91,NNW,331,9.0,16.0,26,0.00,,,0.00,meteohub,2013-04-23 13:21:00,
2013-04-23 06:26:00,64.4,27.9,29.91,NE,49,10.0,18.0,25,0.00,,,0.00,meteohub,2013-04-23 13:26:00,
2013-04-23 06:31:00,64.4,27.9,29.92,NE,56,12.0,19.0,25,0.00,,,0.00,meteohub,2013-04-23 13:31:00,
2013-04-23 06:36:00,64.4,27.9,29.92,NE,36,12.0,19.0,25,0.00,,,0.00,meteohub,2013-04-23 13:36:00,
2013-04-23 06:41:00,64.2,28.6,29.92,ENE,59,8.0,19.0,26,0.00,,,0.00,meteohub,2013-04-23 13:41:00,
2013-04-23 06:46:00,64.2,28.6,29.93,NNE,32,12.0,18.0,26,0.00,,,0.00,meteohub,2013-04-23 13:46:00,
2013-04-23 06:51:00,64.0,28.4,29.92,NE,43,4.0,17.0,26,0.00,,,0.00,meteohub,2013-04-23 13:51:00,
2013-04-23 06:56:00,64.0,28.4,29.93,ENE,71,12.0,16.0,26,0.00,,,0.00,meteohub,2013-04-23 13:56:00,
2013-04-23 07:01:00,64.0,28.4,29.92,North,355,2.0,16.0,26,0.00,,,0.00,meteohub,2013-04-23 14:01:00,
2013-04-23 07:06:00,63.9,27.3,29.92,North,5,7.0,14.0,25,0.00,,,0.00,meteohub,2013-04-23 14:06:00,
2013-04-23 07:11:00,64.0,27.5,29.93,North,355,4.0,14.0,25,0.00,,,0.00,meteohub,2013-04-23 14:11:00,
2013-04-23 07:16:00,64.2,27.7,29.93,NNW,337,6.0,14.0,25,0.00,,,0.00,meteohub,2013-04-23 14:16:00,
2013-04-23 07:21:00,64.4,26.8,29.92,NE,42,9.0,14.0,24,0.00,,,0.00,meteohub,2013-04-23 14:21:00,
2013-04-23 07:26:00,64.8,27.1,29.93,NE,36,8.0,14.0,24,0.00,,,0.00,meteohub,2013-04-23 14:26:00,
2013-04-23 07:31:00,64.8,26.1,29.93,NE,48,5.0,14.0,23,0.00,,,0.00,meteohub,2013-04-23 14:31:00,
2013-04-23 07:36:00,64.9,25.2,29.93,ENE,70,13.0,14.0,22,0.00,,,0.00,meteohub,2013-04-23 14:36:00,
2013-04-23 07:41:00,65.5,24.4,29.93,North,0,7.0,16.0,21,0.00,,,0.00,meteohub,2013-04-23 14:41:00,
2013-04-23 07:46:00,65.7,24.6,29.93,NNE,33,8.0,19.0,21,0.00,,,0.00,meteohub,2013-04-23 14:46:00,
2013-04-23 07:51:00,65.7,23.5,29.93,NNE,31,8.0,19.0,20,0.00,,,0.00,meteohub,2013-04-23 14:51:00,
2013-04-23 07:56:00,65.7,23.5,29.93,ENE,60,9.0,19.0,20,0.00,,,0.00,meteohub,2013-04-23 14:56:00,
2013-04-23 08:01:00,65.7,23.5,29.94,NNW,340,6.0,19.0,20,0.00,,,0.00,meteohub,2013-04-23 15:01:00,
2013-04-23 08:07:00,65.8,24.8,29.94,North,11,7.0,19.0,21,0.00,,,0.00,meteohub,2013-04-23 15:07:00,
2013-04-23 08:12:00,65.8,24.8,29.94,North,5,7.0,20.0,21,0.00,,,0.00,meteohub,2013-04-23 15:12:00,
2013-04-23 08:17:00,65.8,23.7,29.94,North,10,9.0,20.0,20,0.00,,,0.00,meteohub,2013-04-23 15:17:00,
2013-04-23 08:22:00,66.0,23.7,29.95,ENE,62,9.0,18.0,20,0.00,,,0.00,meteohub,2013-04-23 15:22:00,
2013-04-23 08:27:00,66.2,23.9,29.95,North,11,4.0,16.0,20,0.00,,,0.00,meteohub,2013-04-23 15:27:00,
2013-04-23 08:32:00,66.4,24.1,29.95,NE,40,5.0,15.0,20,0.00,,,0.00,meteohub,2013-04-23 15:32:00,
2013-04-23 08:37:00,66.6,25.3,29.95,North,5,3.0,15.0,21,0.00,,,0.00,meteohub,2013-04-23 15:37:00,
2013-04-23 08:42:00,66.7,24.4,29.95,NW,322,3.0,12.0,20,0.00,,,0.00,meteohub,2013-04-23 15:42:00,
2013-04-23 08:47:00,66.7,24.4,29.96,NNE,23,7.0,10.0,20,0.00,,,0.00,meteohub,2013-04-23 15:47:00,
2013-04-23 08:52:00,66.9,24.6,29.96,East,94,9.0,10.0,20,0.00,,,0.00,meteohub,2013-04-23 15:52:00,
2013-04-23 08:57:00,67.3,24.8,29.96,North,355,3.0,11.0,20,0.00,,,0.00,meteohub,2013-04-23 15:57:00,
2013-04-23 09:02:00,67.6,25.2,29.96,NE,34,6.0,11.0,20,0.00,,,0.00,meteohub,2013-04-23 16:02:00,
2013-04-23 09:07:00,67.8,25.3,29.96,NNW,334,5.0,11.0,20,0.00,,,0.00,meteohub,2013-04-23 16:07:00,
2013-04-23 09:12:00,68.2,24.3,29.96,North,355,4.0,9.0,19,0.00,,,0.00,meteohub,2013-04-23 16:12:00,
2013-04-23 09:17:00,68.4,23.2,29.96,NE,38,5.0,9.0,18,0.00,,,0.00,meteohub,2013-04-23 16:17:00,
2013-04-23 09:22:00,68.5,23.4,29.96,North,350,1.0,11.0,18,0.00,,,0.00,meteohub,2013-04-23 16:22:00,
2013-04-23 09:27:00,68.7,23.5,29.96,ENE,58,7.0,12.0,18,0.00,,,0.00,meteohub,2013-04-23 16:27:00,
2013-04-23 09:32:00,68.7,23.5,29.96,NNW,348,3.0,12.0,18,0.00,,,0.00,meteohub,2013-04-23 16:32:00,
2013-04-23 09:37:00,68.9,23.7,29.96,NNW,340,2.0,13.0,18,0.00,,,0.00,meteohub,2013-04-23 16:37:00,
2013-04-23 09:42:00,69.1,23.7,29.96,ENE,68,9.0,13.0,18,0.00,,,0.00,meteohub,2013-04-23 16:42:00,
2013-04-23 09:47:00,69.3,23.9,29.96,NE,46,4.0,13.0,18,0.00,,,0.00,meteohub,2013-04-23 16:47:00,
2013-04-23 09:52:00,69.4,25.3,29.96,NNE,33,2.0,11.0,19,0.00,,,0.00,meteohub,2013-04-23 16:52:00,
2013-04-23 09:57:00,69.6,24.3,29.96,North,0,7.0,12.0,18,0.00,,,0.00,meteohub,2013-04-23 16:57:00,
2013-04-23 10:02:00,69.4,24.1,29.96,NNE,14,7.0,12.0,18,0.00,,,0.00,meteohub,2013-04-23 17:02:00,
2013-04-23 10:07:00,69.6,24.3,29.96,NNE,28,6.0,12.0,18,0.00,,,0.00,meteohub,2013-04-23 17:07:00,
2013-04-23 10:12:00,70.0,24.4,29.96,NE,44,6.0,11.0,18,0.00,,,0.00,meteohub,2013-04-23 17:12:00,
2013-04-23 10:17:00,70.2,24.6,29.96,NE,40,6.0,11.0,18,0.00,,,0.00,meteohub,2013-04-23 17:17:00,
2013-04-23 10:22:00,70.2,24.6,29.96,NNE,22,9.0,10.0,18,0.00,,,0.00,meteohub,2013-04-23 17:22:00,
2013-04-23 10:27:00,70.5,25.0,29.97,NE,46,9.0,10.0,18,0.00,,,0.00,meteohub,2013-04-23 17:27:00,
2013-04-23 10:32:00,70.5,23.5,29.96,NNW,336,4.0,11.0,17,0.00,,,0.00,meteohub,2013-04-23 17:32:00,
2013-04-23 10:37:00,71.2,24.3,29.96,NNW,341,6.0,11.0,17,0.00,,,0.00,meteohub,2013-04-23 17:37:00,
2013-04-23 10:42:00,71.4,24.3,29.96,NE,37,4.0,11.0,17,0.00,,,0.00,meteohub,2013-04-23 17:42:00,
2013-04-23 10:47:00,71.2,31.5,29.96,NNW,337,8.0,10.0,23,0.00,,,0.00,meteohub,2013-04-23 17:47:00,
2013-04-23 10:52:00,70.0,37.0,29.97,North,9,3.0,10.0,30,0.00,,,0.00,meteohub,2013-04-23 17:52:00,
2013-04-23 10:57:00,68.2,38.7,29.97,NW,306,3.0,10.0,34,0.00,,,0.00,meteohub,2013-04-23 17:57:00,
2013-04-23 11:02:00,68.4,37.4,29.97,North,11,4.0,9.0,32,0.00,,,0.00,meteohub,2013-04-23 18:02:00,
2013-04-23 11:07:00,68.7,39.2,29.97,North,355,1.0,7.0,34,0.00,,,0.00,meteohub,2013-04-23 18:07:00,
2013-04-23 11:12:00,68.5,40.5,29.97,NNW,330,4.0,6.0,36,0.00,,,0.00,meteohub,2013-04-23 18:12:00,
2013-04-23 11:17:00,67.6,43.2,29.97,WNW,296,1.0,8.0,41,0.00,,,0.00,meteohub,2013-04-23 18:17:00,
2013-04-23 11:22:00,66.9,42.4,29.98,North,10,5.0,8.0,41,0.00,,,0.00,meteohub,2013-04-23 18:22:00,
2013-04-23 11:27:00,66.4,46.0,29.98,SSW,192,3.0,8.0,48,0.00,,,0.00,meteohub,2013-04-23 18:27:00,
2013-04-23 11:32:00,64.9,45.9,29.98,NW,309,2.0,6.0,50,0.00,,,0.00,meteohub,2013-04-23 18:32:00,
2013-04-23 11:37:00,64.9,46.4,29.98,WNW,283,3.0,7.0,51,0.00,,,0.00,meteohub,2013-04-23 18:37:00,
2013-04-23 11:42:00,64.6,47.1,29.98,WNW,302,6.0,7.0,53,0.00,,,0.00,meteohub,2013-04-23 18:42:00,
2013-04-23 11:47:00,63.1,46.8,29.98,WNW,284,2.0,7.0,55,0.00,,,0.00,meteohub,2013-04-23 18:47:00,
2013-04-23 11:52:00,62.6,47.7,29.98,NW,307,2.0,7.0,58,0.00,,,0.00,meteohub,2013-04-23 18:52:00,
2013-04-23 11:57:00,61.9,46.9,29.98,NNW,330,1.0,8.0,58,0.00,,,0.00,meteohub,2013-04-23 18:57:00,
2013-04-23 12:02:00,61.0,46.9,29.98,WNW,292,3.0,8.0,60,0.00,,,0.00,meteohub,2013-04-23 19:02:00,
2013-04-23 12:07:00,60.6,48.0,29.98,WNW,289,4.0,9.0,63,0.00,,,0.00,meteohub,2013-04-23 19:07:00,
2013-04-23 12:12:00,60.6,48.0,29.98,WNW,298,5.0,9.0,63,0.00,,,0.00,meteohub,2013-04-23 19:12:00,
2013-04-23 12:17:00,60.4,48.2,29.98,South,190,1.0,9.0,64,0.00,,,0.00,meteohub,2013-04-23 19:17:00,
2013-04-23 12:22:00,59.9,48.0,29.98,South,186,5.0,9.0,65,0.00,,,0.00,meteohub,2013-04-23 19:22:00,
2013-04-23 12:27:00,60.1,48.2,29.98,NW,323,6.0,9.0,65,0.00,,,0.00,meteohub,2013-04-23 19:27:00,
2013-04-23 12:32:00,59.7,47.1,29.98,North,5,4.0,9.0,63,0.00,,,0.00,meteohub,2013-04-23 19:32:00,
2013-04-23 12:37:00,59.2,46.9,29.98,WNW,300,7.0,9.0,64,0.00,,,0.00,meteohub,2013-04-23 19:37:00,
2013-04-23 12:42:00,58.5,46.4,29.98,WNW,296,3.0,11.0,64,0.00,,,0.00,meteohub,2013-04-23 19:42:00,
2013-04-23 12:47:00,58.8,47.5,29.98,WNW,289,2.0,11.0,66,0.00,,,0.00,meteohub,2013-04-23 19:47:00,
2013-04-23 12:52:00,58.1,47.7,29.98,SSE,149,1.0,10.0,68,0.00,,,0.00,meteohub,2013-04-23 19:52:00,
2013-04-23 12:57:00,57.7,48.0,29.98,SW,226,4.0,10.0,70,0.00,,,0.00,meteohub,2013-04-23 19:57:00,
2013-04-23 13:02:00,57.0,47.7,29.98,WNW,300,3.0,9.0,71,0.00,,,0.00,meteohub,2013-04-23 20:02:00,
2013-04-23 13:07:00,57.0,48.4,29.98,NNW,336,7.0,14.0,73,0.00,,,0.00,meteohub,2013-04-23 20:07:00,
2013-04-23 13:12:00,56.7,47.7,29.98,North,0,4.0,14.0,72,0.00,,,0.00,meteohub,2013-04-23 20:12:00,
2013-04-23 13:17:00,57.0,48.7,29.98,West,274,6.0,13.0,74,0.00,,,0.00,meteohub,2013-04-23 20:17:00,
2013-04-23 13:22:00,56.8,48.2,29.97,WSW,244,6.0,12.0,73,0.00,,,0.00,meteohub,2013-04-23 20:22:00,
2013-04-23 13:27:00,56.7,48.0,29.97,NW,321,1.0,11.0,73,0.00,,,0.00,meteohub,2013-04-23 20:27:00,
2013-04-23 13:32:00,57.0,49.1,29.97,NNW,329,6.0,11.0,75,0.00,,,0.00,meteohub,2013-04-23 20:32:00,
2013-04-23 13:37:00,57.2,48.9,29.97,WNW,294,3.0,11.0,74,0.00,,,0.00,meteohub,2013-04-23 20:37:00,
2013-04-23 13:42:00,56.7,48.7,29.97,NW,319,3.0,11.0,75,0.00,,,0.00,meteohub,2013-04-23 20:42:00,
2013-04-23 13:47:00,56.8,49.3,29.97,NNW,332,5.0,16.0,76,0.00,,,0.00,meteohub,2013-04-23 20:47:00,
2013-04-23 13:52:00,56.7,48.7,29.97,WNW,282,2.0,16.0,75,0.00,,,0.00,meteohub,2013-04-23 20:52:00,
2013-04-23 13:57:00,56.3,48.9,29.97,WNW,298,9.0,13.0,76,0.00,,,0.00,meteohub,2013-04-23 20:57:00,
2013-04-23 14:02:00,55.9,48.9,29.97,NW,319,6.0,13.0,77,0.00,,,0.00,meteohub,2013-04-23 21:02:00,
2013-04-23 14:07:00,56.1,48.9,29.97,NNW,338,6.0,15.0,77,0.00,,,0.00,meteohub,2013-04-23 21:07:00,
2013-04-23 14:12:00,56.7,48.7,29.97,NNW,330,8.0,15.0,75,0.00,,,0.00,meteohub,2013-04-23 21:12:00,
2013-04-23 14:17:00,55.9,49.1,29.97,NW,313,6.0,15.0,78,0.00,,,0.00,meteohub,2013-04-23 21:17:00,
2013-04-23 14:22:00,56.1,48.9,29.97,South,182,4.0,12.0,77,0.00,,,0.00,meteohub,2013-04-23 21:22:00,
2013-04-23 14:27:00,56.7,49.1,29.97,WNW,297,8.0,12.0,76,0.00,,,0.00,meteohub,2013-04-23 21:27:00,
2013-04-23 14:32:00,56.5,49.6,29.97,NNW,327,3.0,12.0,78,0.00,,,0.00,meteohub,2013-04-23 21:32:00,
2013-04-23 14:37:00,56.1,48.9,29.96,South,182,4.0,10.0,77,0.00,,,0.00,meteohub,2013-04-23 21:37:00,
2013-04-23 14:42:00,56.1,48.9,29.96,SSW,195,1.0,13.0,77,0.00,,,0.00,meteohub,2013-04-23 21:42:00,
2013-04-23 14:47:00,56.1,48.9,29.96,WSW,258,6.0,13.0,77,0.00,,,0.00,meteohub,2013-04-23 21:47:00,
2013-04-23 14:52:00,55.9,49.1,29.96,WNW,296,7.0,15.0,78,0.00,,,0.00,meteohub,2013-04-23 21:52:00,
2013-04-23 14:57:00,55.9,49.1,29.96,SSW,213,7.0,15.0,78,0.00,,,0.00,meteohub,2013-04-23 21:57:00,
2013-04-23 15:02:00,55.8,48.9,29.96,WNW,292,5.0,11.0,78,0.00,,,0.00,meteohub,2013-04-23 22:02:00,
2013-04-23 15:07:00,56.1,48.9,29.96,NNW,333,8.0,10.0,77,0.00,,,0.00,meteohub,2013-04-23 22:07:00,
2013-04-23 15:12:00,54.9,48.7,29.96,SW,231,1.0,12.0,80,0.00,,,0.00,meteohub,2013-04-23 22:12:00,
2013-04-23 15:17:00,55.2,48.7,29.96,WSW,250,4.0,12.0,79,0.00,,,0.00,meteohub,2013-04-23 22:17:00,
2013-04-23 15:22:00,55.9,49.1,29.96,North,0,2.0,12.0,78,0.00,,,0.00,meteohub,2013-04-23 22:22:00,
2013-04-23 15:27:00,55.8,48.9,29.96,South,169,4.0,11.0,78,0.00,,,0.00,meteohub,2013-04-23 22:27:00,
2013-04-23 15:32:00,55.8,48.9,29.95,East,98,3.0,9.0,78,0.00,,,0.00,meteohub,2013-04-23 22:32:00,
2013-04-23 15:37:00,56.1,49.3,29.95,SW,232,6.0,10.0,78,0.00,,,0.00,meteohub,2013-04-23 22:37:00,
2013-04-23 15:42:00,55.4,48.7,29.95,WSW,239,7.0,10.0,78,0.00,,,0.00,meteohub,2013-04-23 22:42:00,
2013-04-23 15:47:00,55.8,49.6,29.95,SE,138,4.0,10.0,80,0.00,,,0.00,meteohub,2013-04-23 22:47:00,
2013-04-23 15:52:00,56.1,49.3,29.95,NW,313,5.0,10.0,78,0.00,,,0.00,meteohub,2013-04-23 22:52:00,
2013-04-23 15:57:00,55.6,48.9,29.94,WNW,287,5.0,10.0,78,0.00,,,0.00,meteohub,2013-04-23 22:57:00,
2013-04-23 16:02:00,54.9,48.7,29.94,NNE,14,1.0,10.0,80,0.00,,,0.00,meteohub,2013-04-23 23:02:00,
2013-04-23 16:07:00,55.0,49.3,29.94,SSW,205,10.0,11.0,81,0.00,,,0.00,meteohub,2013-04-23 23:07:00,
2013-04-23 16:12:00,54.3,48.2,29.94,West,279,3.0,11.0,80,0.00,,,0.00,meteohub,2013-04-23 23:12:00,
2013-04-23 16:18:00,54.0,48.6,29.94,SW,215,3.0,11.0,82,0.00,,,0.00,meteohub,2013-04-23 23:18:00,
2013-04-23 16:23:00,53.8,48.7,29.94,WNW,294,8.0,11.0,83,0.00,,,0.00,meteohub,2013-04-23 23:23:00,
2013-04-23 16:28:00,53.8,48.7,29.94,North,5,2.0,11.0,83,0.00,,,0.00,meteohub,2013-04-23 23:28:00,
2013-04-23 16:33:00,53.8,49.1,29.94,SSW,199,1.0,11.0,84,0.00,,,0.00,meteohub,2013-04-23 23:33:00,
2013-04-23 16:38:00,53.8,49.1,29.94,South,169,1.0,12.0,84,0.00,,,0.00,meteohub,2013-04-23 23:38:00,
2013-04-23 16:43:00,53.4,48.7,29.94,SSW,205,7.0,12.0,84,0.00,,,0.00,meteohub,2013-04-23 23:43:00,
2013-04-23 16:48:00,53.2,48.6,29.94,NW,325,6.0,13.0,84,0.00,,,0.00,meteohub,2013-04-23 23:48:00,
2013-04-23 16:53:00,52.7,48.4,29.94,NNW,329,0.0,13.0,85,0.00,,,0.00,meteohub,2013-04-23 23:53:00,
2013-04-23 16:58:00,52.9,48.7,29.94,SSW,196,12.0,13.0,86,0.00,,,0.00,meteohub,2013-04-23 23:58:00,
2013-04-23 17:03:00,52.5,48.4,29.93,SSE,161,5.0,12.0,86,0.00,,,0.00,meteohub,2013-04-24 00:03:00,
2013-04-23 17:08:00,52.7,48.6,29.93,NW,322,6.0,12.0,86,0.00,,,0.00,meteohub,2013-04-24 00:08:00,
2013-04-23 17:13:00,52.9,48.7,29.93,South,180,7.0,12.0,86,0.00,,,0.00,meteohub,2013-04-24 00:13:00,
2013-04-23 17:18:00,52.3,48.2,29.93,NNW,338,3.0,10.0,86,0.00,,,0.00,meteohub,2013-04-24 00:18:00,
2013-04-23 17:23:00,52.3,48.2,29.93,WSW,252,2.0,10.0,86,0.00,,,0.00,meteohub,2013-04-24 00:23:00,
2013-04-23 17:28:00,52.2,48.0,29.93,NW,325,3.0,10.0,86,0.00,,,0.00,meteohub,2013-04-24 00:28:00,
2013-04-23 17:33:00,51.6,47.8,29.93,NW,307,4.0,10.0,87,0.00,,,0.00,meteohub,2013-04-24 00:33:00,
2013-04-23 17:38:00,51.6,48.2,29.93,WNW,285,2.0,10.0,88,0.00,,,0.00,meteohub,2013-04-24 00:38:00,
2013-04-23 17:43:00,51.4,47.7,29.93,SSW,208,3.0,10.0,87,0.00,,,0.00,meteohub,2013-04-24 00:43:00,
2013-04-23 17:48:00,51.4,48.4,29.93,NW,315,3.0,10.0,89,0.00,,,0.00,meteohub,2013-04-24 00:48:00,
2013-04-23 17:53:00,51.6,48.2,29.93,South,190,2.0,15.0,88,0.00,,,0.00,meteohub,2013-04-24 00:53:00,
2013-04-23 17:58:00,51.4,48.0,29.93,West,259,1.0,15.0,88,0.00,,,0.00,meteohub,2013-04-24 00:58:00,
2013-04-23 18:03:00,51.3,47.8,29.93,WNW,286,0.0,15.0,88,0.00,,,0.00,meteohub,2013-04-24 01:03:00,
2013-04-23 18:08:00,50.9,47.5,29.93,SSW,207,4.0,9.0,88,0.00,,,0.00,meteohub,2013-04-24 01:08:00,
2013-04-23 18:13:00,50.5,47.5,29.93,East,98,1.0,11.0,89,0.00,,,0.00,meteohub,2013-04-24 01:13:00,
2013-04-23 18:18:00,50.5,47.7,29.93,WNW,292,6.0,11.0,90,0.00,,,0.00,meteohub,2013-04-24 01:18:00,
2013-04-23 18:23:00,50.7,47.7,29.93,East,84,2.0,11.0,89,0.00,,,0.00,meteohub,2013-04-24 01:23:00,
2013-04-23 18:28:00,50.4,47.5,29.93,WSW,245,4.0,9.0,90,0.00,,,0.00,meteohub,2013-04-24 01:28:00,
2013-04-23 18:33:00,50.4,47.5,29.92,SE,128,3.0,9.0,90,0.00,,,0.00,meteohub,2013-04-24 01:33:00,
2013-04-23 18:38:00,50.2,47.3,29.92,SE,141,0.0,8.0,90,0.00,,,0.00,meteohub,2013-04-24 01:38:00,
2013-04-23 18:43:00,50.2,47.3,29.93,SSE,164,1.0,9.0,90,0.00,,,0.00,meteohub,2013-04-24 01:43:00,
2013-04-23 18:48:00,49.8,47.3,29.93,WNW,302,7.0,9.0,91,0.00,,,0.00,meteohub,2013-04-24 01:48:00,
2013-04-23 18:53:00,49.6,47.1,29.92,NW,318,2.0,8.0,91,0.00,,,0.00,meteohub,2013-04-24 01:53:00,
2013-04-23 18:58:00,49.8,47.3,29.92,NW,309,4.0,11.0,91,0.00,,,0.00,meteohub,2013-04-24 01:58:00,
2013-04-23 19:03:00,49.8,47.3,29.92,SSE,163,5.0,11.0,91,0.00,,,0.00,meteohub,2013-04-24 02:03:00,
2013-04-23 19:08:00,49.6,47.1,29.92,WSW,253,4.0,11.0,91,0.00,,,0.00,meteohub,2013-04-24 02:08:00,
2013-04-23 19:13:00,49.6,47.1,29.92,WNW,284,2.0,11.0,91,0.00,,,0.00,meteohub,2013-04-24 02:13:00,
2013-04-23 19:20:00,49.6,47.1,29.92,WNW,298,2.0,9.0,91,0.00,,,0.00,meteohub,2013-04-24 02:20:00,
2013-04-23 19:27:00,49.5,46.9,29.92,South,184,4.0,9.0,91,0.00,,,0.00,meteohub,2013-04-24 02:27:00,
2013-04-23 19:32:00,49.1,46.6,29.91,WSW,252,0.0,10.0,91,0.00,,,0.00,meteohub,2013-04-24 02:32:00,
2013-04-23 19:37:00,48.9,46.8,29.91,SW,227,6.0,11.0,92,0.00,,,0.00,meteohub,2013-04-24 02:37:00,
2013-04-23 19:42:00,48.7,46.6,29.91,SSW,211,3.0,11.0,92,0.00,,,0.00,meteohub,2013-04-24 02:42:00,
2013-04-23 19:50:00,48.9,46.8,29.92,NW,314,4.0,12.0,92,0.00,,,0.00,meteohub,2013-04-24 02:50:00,
2013-04-23 19:55:00,48.9,46.8,29.92,SSW,197,7.0,12.0,92,0.00,,,0.00,meteohub,2013-04-24 02:55:00,
2013-04-23 20:02:00,48.7,46.8,29.92,NNE,32,3.0,8.0,93,0.00,,,0.00,meteohub,2013-04-24 03:02:00,
2013-04-23 20:07:00,48.7,46.8,29.92,SW,216,4.0,8.0,93,0.00,,,0.00,meteohub,2013-04-24 03:07:00,
2013-04-23 20:12:00,48.6,46.6,29.92,SW,229,4.0,8.0,93,0.00,,,0.00,meteohub,2013-04-24 03:12:00,
2013-04-23 20:17:00,48.6,46.6,29.92,South,175,5.0,8.0,93,0.00,,,0.00,meteohub,2013-04-24 03:17:00,
2013-04-23 20:22:00,48.4,46.4,29.92,NNW,327,3.0,8.0,93,0.00,,,0.00,meteohub,2013-04-24 03:22:00,
2013-04-23 20:27:00,48.4,46.4,29.92,West,269,1.0,8.0,93,0.00,,,0.00,meteohub,2013-04-24 03:27:00,
2013-04-23 20:32:00,48.4,46.4,29.92,South,189,4.0,9.0,93,0.00,,,0.00,meteohub,2013-04-24 03:32:00,
2013-04-23 20:37:00,48.2,46.2,29.92,South,182,4.0,16.0,93,0.00,,,0.00,meteohub,2013-04-24 03:37:00,
2013-04-23 20:42:00,48.2,46.2,29.93,SSW,198,7.0,16.0,93,0.00,,,0.00,meteohub,2013-04-24 03:42:00,
2013-04-23 20:47:00,48.4,46.8,29.93,South,182,3.0,16.0,94,0.00,,,0.00,meteohub,2013-04-24 03:47:00,
2013-04-23 20:52:00,48.4,46.8,29.93,South,169,2.0,8.0,94,0.00,,,0.00,meteohub,2013-04-24 03:52:00,
2013-04-23 20:57:00,48.4,46.8,29.93,SSW,210,6.0,11.0,94,0.00,,,0.00,meteohub,2013-04-24 03:57:00,
2013-04-23 21:01:00,48.6,46.9,29.93,NNW,343,3.0,11.0,94,0.00,,,0.00,meteohub,2013-04-24 04:01:00,
2013-04-23 21:06:00,48.6,46.9,29.93,SW,214,3.0,11.0,94,0.00,,,0.00,meteohub,2013-04-24 04:06:00,
2013-04-23 21:11:00,48.4,46.8,29.94,WNW,283,1.0,8.0,94,0.00,,,0.00,meteohub,2013-04-24 04:11:00,
2013-04-23 21:16:00,48.4,46.8,29.94,South,191,1.0,8.0,94,0.00,,,0.00,meteohub,2013-04-24 04:16:00,
2013-04-23 21:21:00,48.6,46.9,29.94,ESE,123,2.0,10.0,94,0.00,,,0.00,meteohub,2013-04-24 04:21:00,
2013-04-23 21:26:00,48.6,46.9,29.94,West,273,2.0,10.0,94,0.00,,,0.00,meteohub,2013-04-24 04:26:00,
2013-04-23 21:31:00,48.6,46.9,29.94,SSW,205,1.0,10.0,94,0.00,,,0.00,meteohub,2013-04-24 04:31:00,
2013-04-23 21:36:00,48.6,46.9,29.94,SSE,165,1.0,11.0,94,0.00,,,0.00,meteohub,2013-04-24 04:36:00,
2013-04-23 21:41:00,48.6,46.9,29.94,WNW,283,1.0,11.0,94,0.00,,,0.00,meteohub,2013-04-24 04:41:00,
2013-04-23 21:46:00,48.4,46.8,29.94,West,269,2.0,12.0,94,0.00,,,0.00,meteohub,2013-04-24 04:46:00,
2013-04-23 21:51:00,48.4,46.8,29.94,South,190,0.0,12.0,94,0.00,,,0.00,meteohub,2013-04-24 04:51:00,
2013-04-23 21:56:00,48.6,46.9,29.94,NNW,336,0.0,12.0,94,0.00,,,0.00,meteohub,2013-04-24 04:56:00,
2013-04-23 22:01:00,48.6,46.9,29.94,NW,324,0.0,9.0,94,0.00,,,0.00,meteohub,2013-04-24 05:01:00,
2013-04-23 22:07:00,48.6,46.9,29.94,West,261,1.0,9.0,94,0.00,,,0.00,meteohub,2013-04-24 05:07:00,
2013-04-23 22:12:00,48.6,46.9,29.94,WNW,291,4.0,9.0,94,0.00,,,0.00,meteohub,2013-04-24 05:12:00,
2013-04-23 22:17:00,48.6,46.9,29.94,South,175,1.0,8.0,94,0.00,,,0.00,meteohub,2013-04-24 05:17:00,
2013-04-23 22:22:00,48.6,46.9,29.94,SSW,210,1.0,9.0,94,0.00,,,0.00,meteohub,2013-04-24 05:22:00,
2013-04-23 22:27:00,48.6,46.9,29.94,SW,230,2.0,9.0,94,0.00,,,0.00,meteohub,2013-04-24 05:27:00,
2013-04-23 22:32:00,48.4,46.8,29.94,WNW,290,1.0,9.0,94,0.00,,,0.00,meteohub,2013-04-24 05:32:00,
2013-04-23 22:37:00,48.4,46.8,29.94,SSW,197,1.0,8.0,94,0.00,,,0.00,meteohub,2013-04-24 05:37:00,
2013-04-23 22:42:00,48.6,46.9,29.94,SSW,200,5.0,8.0,94,0.00,,,0.00,meteohub,2013-04-24 05:42:00,
2013-04-23 22:47:00,48.4,46.8,29.94,South,171,0.0,7.0,94,0.00,,,0.00,meteohub,2013-04-24 05:47:00,
2013-04-23 22:52:00,48.4,46.8,29.94,NW,305,0.0,6.0,94,0.00,,,0.00,meteohub,2013-04-24 05:52:00,
2013-04-23 22:57:00,48.6,46.9,29.94,East,88,1.0,6.0,94,0.00,,,0.00,meteohub,2013-04-24 05:57:00,
2013-04-23 23:02:00,48.4,46.8,29.94,NNE,14,2.0,6.0,94,0.00,,,0.00,meteohub,2013-04-24 06:02:00,
2013-04-23 23:07:00,48.4,46.8,29.93,NE,40,0.0,6.0,94,0.00,,,0.00,meteohub,2013-04-24 06:07:00,
2013-04-23 23:12:00,48.4,46.8,29.93,NE,40,3.0,6.0,94,0.00,,,0.00,meteohub,2013-04-24 06:12:00,
2013-04-23 23:17:00,48.4,46.8,29.93,SW,231,0.0,7.0,94,0.00,,,0.00,meteohub,2013-04-24 06:17:00,
2013-04-23 23:22:00,48.2,46.6,29.93,SE,137,1.0,7.0,94,0.00,,,0.00,meteohub,2013-04-24 06:22:00,
2013-04-23 23:27:00,48.0,46.4,29.93,SSE,153,2.0,7.0,94,0.00,,,0.00,meteohub,2013-04-24 06:27:00,
2013-04-23 23:32:00,48.0,46.4,29.93,ESE,110,1.0,6.0,94,0.00,,,0.00,meteohub,2013-04-24 06:32:00,
2013-04-23 23:37:00,48.2,46.6,29.93,ESE,111,0.0,4.0,94,0.00,,,0.00,meteohub,2013-04-24 06:37:00,
2013-04-23 23:42:00,48.0,46.4,29.92,SW,227,0.0,5.0,94,0.00,,,0.00,meteohub,2013-04-24 06:42:00,
2013-04-23 23:47:00,48.2,46.6,29.92,NE,45,0.0,6.0,94,0.00,,,0.00,meteohub,2013-04-24 06:47:00,
2013-04-23 23:52:00,48.0,46.4,29.92,WNW,289,1.0,6.0,94,0.00,,,0.00,meteohub,2013-04-24 06:52:00,
2013-04-23 23:57:00,48.2,46.6,29.92,ENE,58,1.0,4.0,94,0.00,,,0.00,meteohub,2013-04-24 06:57:00,